Time;durP1;ratioP1;P1;durP2;ratioP2;P2;SDS_P1;SDS_P2;PMS_P1;PMS_P2;Temp;Humidity;BMP_temperature;BMP_pressure;BME280_temperature;BME280_humidity;BME280_pressure;Samples;Min_cycle;Max_cycle;Signal;HPM_P1;HPM_P2
2022/07/19 00:01:23;;;;;;;6.47;5.20;;;;;;;20.46;nan;101729.59;5051688;28;20029;-60
2022/07/19 00:03:48;;;;;;;6.30;5.05;;;;;;;20.42;nan;101722.72;5052754;28;20040;-60
2022/07/19 00:06:14;;;;;;;6.13;4.80;;;;;;;20.39;nan;101720.22;5052593;28;20103;-61
2022/07/19 00:08:39;;;;;;;8.35;5.03;;;;;;;20.06;nan;101672.25;5052672;28;20392;-59
2022/07/19 00:11:04;;;;;;;5.85;4.93;;;;;;;20.34;nan;101716.09;5051444;28;20037;-61
2022/07/19 00:13:30;;;;;;;5.03;4.55;;;;;;;20.29;nan;101721.72;5052778;28;20048;-61
2022/07/19 00:15:55;;;;;;;5.88;5.38;;;;;;;20.21;nan;101707.91;5052047;28;20037;-60
2022/07/19 00:18:20;;;;;;;5.55;4.80;;;;;;;19.99;nan;101678.03;5051231;28;20044;-61
2022/07/19 00:20:45;;;;;;;5.35;4.85;;;;;;;20.00;nan;101680.63;5052305;28;20033;-60
2022/07/19 00:23:11;;;;;;;5.55;5.00;;;;;;;19.99;nan;101686.91;5052310;28;20052;-60
2022/07/19 00:25:36;;;;;;;6.45;5.43;;;;;;;20.17;nan;101727.72;5052288;28;20368;-60
2022/07/19 00:28:01;;;;;;;6.60;5.50;;;;;;;20.14;nan;101709.19;5052329;28;20060;-61
2022/07/19 00:30:27;;;;;;;7.10;5.53;;;;;;;19.88;nan;101673.31;5052367;28;20079;-61
2022/07/19 00:32:52;;;;;;;6.60;5.47;;;;;;;20.12;nan;101720.00;5052164;28;20029;-60
2022/07/19 00:35:18;;;;;;;5.95;5.07;;;;;;;19.82;nan;101667.47;5050906;28;20040;-60
2022/07/19 00:37:43;;;;;;;7.38;5.30;;;;;;;19.87;nan;101676.06;5052187;28;20468;-60
2022/07/19 00:40:09;;;;;;;6.53;5.00;;;;;;;19.89;nan;101682.19;5051786;28;20052;-60
2022/07/19 00:42:34;;;;;;;6.28;4.97;;;;;;;19.78;nan;101674.81;5051115;28;20033;-61
2022/07/19 00:45:00;;;;;;;7.18;5.50;;;;;;;19.73;nan;101670.66;5052298;28;20443;-60
2022/07/19 00:47:25;;;;;;;7.88;5.10;;;;;;;19.86;nan;101693.06;5052053;28;20442;-61
2022/07/19 00:49:50;;;;;;;6.78;4.75;;;;;;;19.96;nan;101715.63;5050908;28;20112;-61
2022/07/19 00:52:17;;;;;;;7.32;4.82;;;;;;;19.91;nan;101712.34;5052112;28;20051;-62
2022/07/19 00:54:43;;;;;;;5.20;4.65;;;;;;;19.88;nan;101723.19;5050864;28;20036;-60
2022/07/19 00:57:09;;;;;;;7.07;4.68;;;;;;;19.67;nan;101686.06;5051646;28;20407;-60
2022/07/19 00:59:35;;;;;;;5.68;4.47;;;;;;;19.49;nan;101673.78;5056293;28;20033;-61
2022/07/19 01:02:00;;;;;;;4.75;4.13;;;;;;;19.73;nan;101711.56;5038281;28;20120;-58
2022/07/19 01:04:26;;;;;;;6.97;5.28;;;;;;;19.73;nan;101724.09;5056036;28;20404;-59
2022/07/19 01:06:51;;;;;;;9.52;4.85;;;;;;;19.72;nan;101719.69;5038125;28;20396;-59
2022/07/19 01:09:17;;;;;;;5.18;4.65;;;;;;;19.68;nan;101710.97;5056037;28;20064;-60
2022/07/19 01:11:42;;;;;;;6.32;4.80;;;;;;;19.65;nan;101717.38;5056076;28;20033;-60
2022/07/19 01:14:07;;;;;;;5.15;4.35;;;;;;;19.64;nan;101714.78;5054932;28;20377;-60
2022/07/19 01:16:33;;;;;;;5.40;4.88;;;;;;;19.59;nan;101708.81;5055991;28;20032;-61
2022/07/19 01:18:58;;;;;;;5.57;4.70;;;;;;;19.57;nan;101700.91;5055868;28;20037;-61
2022/07/19 01:21:25;;;;;;;7.57;5.05;;;;;;;19.56;nan;101703.66;5055868;28;20500;-61
2022/07/19 01:23:50;;;;;;;6.53;4.90;;;;;;;19.53;nan;101702.03;5055700;28;20123;-60
2022/07/19 01:26:16;;;;;;;5.28;4.78;;;;;;;19.48;nan;101698.75;5055577;28;20129;-61
2022/07/19 01:28:42;;;;;;;7.43;4.90;;;;;;;19.14;nan;101642.81;5055577;28;20041;-60
2022/07/19 01:31:07;;;;;;;5.65;5.00;;;;;;;19.44;nan;101696.34;5054497;28;20067;-60
2022/07/19 01:33:39;;;;;;;6.38;5.35;;;;;;;19.33;nan;101683.53;5055716;28;20061;-61
2022/07/19 01:36:04;;;;;;;6.95;5.75;;;;;;;19.38;nan;101689.50;5055316;28;20467;-60
2022/07/19 01:38:30;;;;;;;6.03;5.40;;;;;;;19.04;nan;101637.13;5055094;28;20136;-60
2022/07/19 01:40:58;;;;;;;7.22;5.03;;;;;;;19.31;nan;101701.47;5055554;28;20075;-59
2022/07/19 01:43:23;;;;;;;9.27;5.50;;;;;;;19.24;nan;101686.72;5054239;28;20484;-61
2022/07/19 01:45:48;;;;;;;5.90;5.22;;;;;;;19.24;nan;101680.50;5055292;28;20143;-60
2022/07/19 01:48:13;;;;;;;7.20;5.03;;;;;;;19.13;nan;101673.09;5055282;28;20090;-61
2022/07/19 01:50:39;;;;;;;5.30;4.80;;;;;;;18.73;nan;101612.19;5054104;28;20064;-60
2022/07/19 01:53:04;;;;;;;5.82;5.30;;;;;;;19.06;nan;101667.25;5053892;28;20044;-61
2022/07/19 01:55:29;;;;;;;7.40;5.38;;;;;;;19.15;nan;101686.38;5054262;28;20041;-60
2022/07/19 01:57:55;;;;;;;7.78;5.38;;;;;;;19.12;nan;101687.38;5055142;28;20037;-61
2022/07/19 02:00:20;;;;;;;8.05;5.55;;;;;;;19.10;nan;101695.50;5055306;28;20041;-60
2022/07/19 02:02:46;;;;;;;7.75;6.93;;;;;;;18.79;nan;101630.53;5054087;28;20641;-59
2022/07/19 02:05:11;;;;;;;12.98;6.50;;;;;;;19.09;nan;101685.75;5054697;28;20128;-60
2022/07/19 02:07:37;;;;;;;8.32;6.00;;;;;;;19.13;nan;101681.13;5054734;28;20028;-59
2022/07/19 02:10:04;;;;;;;8.52;6.57;;;;;;;18.89;nan;101643.28;5053827;28;20044;-60
2022/07/19 02:12:30;;;;;;;9.07;6.82;;;;;;;19.05;nan;101670.88;5053646;28;20083;-61
2022/07/19 02:14:56;;;;;;;9.02;7.35;;;;;;;18.78;nan;101612.81;5054634;28;20033;-59
2022/07/19 02:17:21;;;;;;;9.60;6.50;;;;;;;19.11;nan;101683.00;5053571;28;20043;-59
2022/07/19 02:19:46;;;;;;;8.48;7.07;;;;;;;19.09;nan;101671.53;5054746;28;20123;-61
2022/07/19 02:22:12;;;;;;;11.20;7.78;;;;;;;18.83;nan;101632.94;5054673;28;20081;-60
2022/07/19 02:24:38;;;;;;;8.50;7.53;;;;;;;19.09;nan;101677.75;5054798;28;20033;-59
2022/07/19 02:27:03;;;;;;;12.68;7.43;;;;;;;18.77;nan;101627.94;5053328;28;20086;-60
2022/07/19 02:29:29;;;;;;;9.38;7.90;;;;;;;19.06;nan;101675.25;5054631;28;20041;-60
2022/07/19 02:31:54;;;;;;;10.32;8.43;;;;;;;18.79;nan;101628.75;5053328;28;20037;-60
2022/07/19 02:34:19;;;;;;;10.43;8.20;;;;;;;19.05;nan;101672.66;5054423;28;20045;-59
2022/07/19 02:36:45;;;;;;;11.02;9.40;;;;;;;18.82;nan;101639.25;5054288;28;20431;-61
2022/07/19 02:39:10;;;;;;;12.07;8.88;;;;;;;19.04;nan;101676.28;5054430;28;20049;-60
2022/07/19 02:41:35;;;;;;;12.02;8.15;;;;;;;19.01;nan;101674.63;5054404;28;20150;-58
2022/07/19 02:44:01;;;;;;;10.18;8.23;;;;;;;18.77;nan;101633.28;5054064;28;20403;-61
2022/07/19 02:46:26;;;;;;;12.35;9.05;;;;;;;18.97;nan;101677.56;5054363;28;20033;-59
2022/07/19 02:48:52;;;;;;;11.05;8.13;;;;;;;18.67;nan;101629.38;5054194;28;20047;-60
2022/07/19 02:51:17;;;;;;;13.75;8.60;;;;;;;18.92;nan;101675.13;5053913;28;20068;-61
2022/07/19 02:53:42;;;;;;;11.93;9.05;;;;;;;18.93;nan;101684.00;5054083;28;20040;-59
2022/07/19 02:56:07;;;;;;;11.82;9.90;;;;;;;18.60;nan;101617.31;5052884;28;20067;-60
2022/07/19 02:58:33;;;;;;;12.07;9.38;;;;;;;18.83;nan;101664.09;5052800;28;20099;-61
2022/07/19 03:00:58;;;;;;;14.63;10.75;;;;;;;18.75;nan;101644.97;5052670;28;20040;-59
2022/07/19 03:06:08;;;;;;;15.07;11.00;;;;;;;18.72;nan;101642.47;5053972;28;20099;-60
2022/07/19 03:08:33;;;;;;;11.10;9.20;;;;;;;18.87;nan;101674.53;5053918;28;20492;-60
2022/07/19 03:10:58;;;;;;;12.80;9.95;;;;;;;18.86;nan;101677.25;5053910;28;20397;-60
2022/07/19 03:13:24;;;;;;;11.82;9.82;;;;;;;18.82;nan;101660.59;5053825;28;20037;-60
2022/07/19 03:15:49;;;;;;;15.23;10.52;;;;;;;18.71;nan;101654.09;5052292;28;20047;-60
2022/07/19 03:18:14;;;;;;;13.57;10.63;;;;;;;18.74;nan;101660.09;5052276;28;20071;-60
2022/07/19 03:20:40;;;;;;;12.23;10.25;;;;;;;18.72;nan;101659.34;5052131;28;20036;-60
2022/07/19 03:23:05;;;;;;;11.45;10.23;;;;;;;18.42;nan;101612.91;5053817;28;20051;-60
2022/07/19 03:25:30;;;;;;;13.15;10.20;;;;;;;18.37;nan;101598.97;5053415;28;20540;-60
2022/07/19 03:27:56;;;;;;;13.10;10.50;;;;;;;18.62;nan;101660.78;5053414;28;20037;-59
2022/07/19 03:30:21;;;;;;;14.45;10.30;;;;;;;18.58;nan;101659.22;5053282;28;20036;-60
2022/07/19 03:32:47;;;;;;;13.00;9.90;;;;;;;18.57;nan;101661.94;5052080;28;20041;-60
2022/07/19 03:35:13;;;;;;;12.98;10.23;;;;;;;18.20;nan;101602.53;5053148;28;20029;-62
2022/07/19 03:37:38;;;;;;;15.85;12.35;;;;;;;18.50;nan;101653.41;5053016;28;20048;-59
2022/07/19 03:40:04;;;;;;;13.60;10.73;;;;;;;18.12;nan;101596.75;5051529;28;20059;-61
2022/07/19 03:42:30;;;;;;;13.50;10.32;;;;;;;18.07;nan;101588.09;5051983;28;20442;-62
2022/07/19 03:44:55;;;;;;;12.68;10.73;;;;;;;18.47;nan;101653.53;5051842;28;20036;-60
2022/07/19 03:47:20;;;;;;;14.95;11.50;;;;;;;18.49;nan;101659.69;5051836;28;20040;-61
2022/07/19 03:49:46;;;;;;;13.40;11.80;;;;;;;18.21;nan;101601.59;5052902;28;20037;-59
2022/07/19 03:52:11;;;;;;;14.95;12.27;;;;;;;18.22;nan;101603.31;5053006;28;20041;-60
2022/07/19 03:54:37;;;;;;;14.07;12.05;;;;;;;18.53;nan;101654.09;5051926;28;20037;-60
2022/07/19 03:57:03;;;;;;;16.75;13.30;;;;;;;18.51;nan;101641.78;5052813;28;20067;-62
2022/07/19 03:59:28;;;;;;;16.77;12.10;;;;;;;17.80;nan;101520.28;5052987;28;20044;-61
2022/07/19 04:01:54;;;;;;;19.48;13.25;;;;;;;18.28;nan;101605.66;5051563;28;20041;-59
2022/07/19 04:04:19;;;;;;;17.23;12.60;;;;;;;18.27;nan;101603.09;5052616;28;20476;-60
2022/07/19 04:06:45;;;;;;;14.63;12.93;;;;;;;18.61;nan;101647.50;5052824;28;20029;-60
2022/07/19 04:09:10;;;;;;;16.20;12.65;;;;;;;18.59;nan;101646.75;5052803;28;20033;-61
2022/07/19 04:11:35;;;;;;;14.88;12.48;;;;;;;18.59;nan;101642.28;5051440;28;20049;-59
2022/07/19 04:14:01;;;;;;;13.75;11.95;;;;;;;18.24;nan;101589.91;5052639;28;20069;-60
2022/07/19 04:16:26;;;;;;;14.93;12.18;;;;;;;18.52;nan;101649.72;5052547;28;20040;-59
2022/07/19 04:18:51;;;;;;;15.00;12.85;;;;;;;18.51;nan;101640.00;5052443;28;20041;-60
2022/07/19 04:21:17;;;;;;;15.77;12.80;;;;;;;18.22;nan;101581.97;5052388;28;20048;-61
2022/07/19 04:23:42;;;;;;;14.43;12.15;;;;;;;18.57;nan;101644.13;5050885;28;20052;-61
2022/07/19 04:26:07;;;;;;;13.88;12.43;;;;;;;18.49;nan;101633.03;5052524;28;20033;-60
2022/07/19 04:28:33;;;;;;;13.23;11.77;;;;;;;18.24;nan;101606.75;5052449;28;20029;-60
2022/07/19 04:30:58;;;;;;;15.30;11.73;;;;;;;18.54;nan;101652.28;5052421;28;20044;-60
2022/07/19 04:33:23;;;;;;;14.43;11.82;;;;;;;18.54;nan;101644.28;5050461;28;20033;-62
2022/07/19 04:35:49;;;;;;;14.70;11.90;;;;;;;18.54;nan;101649.63;5052672;28;20465;-59
2022/07/19 04:38:14;;;;;;;17.15;12.63;;;;;;;18.55;nan;101648.69;5051003;28;20443;-61
2022/07/19 04:40:39;;;;;;;13.13;11.73;;;;;;;18.32;nan;101593.03;5052109;28;20419;-61
2022/07/19 04:43:05;;;;;;;14.25;12.77;;;;;;;18.50;nan;101635.59;5052030;28;20064;-58
2022/07/19 04:45:30;;;;;;;13.88;12.38;;;;;;;18.30;nan;101584.28;5050852;28;20044;-59
2022/07/19 04:47:56;;;;;;;14.63;12.57;;;;;;;18.58;nan;101640.53;5050784;28;20077;-59
2022/07/19 04:50:21;;;;;;;16.08;12.60;;;;;;;18.46;nan;101604.69;5052312;28;20037;-61
2022/07/19 04:52:47;;;;;;;14.07;12.60;;;;;;;18.58;nan;101608.53;5050889;28;20051;-60
2022/07/19 04:55:12;;;;;;;16.98;13.00;;;;;;;18.73;nan;101634.41;5052032;28;20033;-61
2022/07/19 04:57:38;;;;;;;15.23;13.55;;;;;;;18.89;nan;101650.41;5050505;28;20061;-59
2022/07/19 05:00:06;;;;;;;15.48;13.00;;;;;;;18.96;nan;101659.81;5050880;28;20055;-59
2022/07/19 05:02:31;;;;;;;19.50;15.43;;;;;;;19.01;nan;101652.44;5050890;28;20057;-61
2022/07/19 05:04:57;;;;;;;14.55;12.95;;;;;;;19.04;nan;101661.13;5051700;28;20043;-59
2022/07/19 05:07:22;;;;;;;23.10;16.83;;;;;;;19.15;nan;101654.34;5050941;28;20121;-61
2022/07/19 05:09:47;;;;;;;16.92;14.95;;;;;;;19.24;nan;101646.69;5051969;28;20418;-59
2022/07/19 05:12:12;;;;;;;17.85;14.65;;;;;;;19.07;nan;101602.25;5051877;28;20041;-59
2022/07/19 05:14:38;;;;;;;15.65;13.75;;;;;;;19.40;nan;101646.72;5050766;28;20040;-59
2022/07/19 05:17:03;;;;;;;19.13;15.27;;;;;;;19.37;nan;101633.53;5051934;28;20037;-60
2022/07/19 05:19:28;;;;;;;18.00;14.35;;;;;;;19.28;nan;101602.88;5052088;28;20037;-60
2022/07/19 05:21:54;;;;;;;15.27;13.73;;;;;;;19.42;nan;101610.97;5051887;28;20025;-61
2022/07/19 05:24:19;;;;;;;15.32;12.57;;;;;;;19.50;nan;101607.88;5050194;28;20037;-61
2022/07/19 05:26:44;;;;;;;19.60;12.57;;;;;;;19.94;nan;101664.94;5051830;28;20048;-59
2022/07/19 05:29:11;;;;;;;13.52;12.05;;;;;;;19.79;nan;101622.25;5052140;28;20037;-59
2022/07/19 05:31:37;;;;;;;17.67;13.30;;;;;;;20.10;nan;101663.09;5051743;28;20040;-60
2022/07/19 05:34:02;;;;;;;16.45;12.35;;;;;;;20.28;nan;101671.00;5050217;28;20480;-62
2022/07/19 05:36:27;;;;;;;15.43;12.07;;;;;;;20.41;nan;101677.34;5051890;28;20041;-60
2022/07/19 05:38:53;;;;;;;14.75;12.82;;;;;;;20.51;nan;101673.16;5051935;28;20045;-61
2022/07/19 05:41:21;;;;;;;14.40;11.60;;;;;;;20.48;nan;101642.13;5051721;28;20033;-59
2022/07/19 05:43:47;;;;;;;14.27;11.35;;;;;;;20.82;nan;101669.47;5053378;28;20067;-62
2022/07/19 05:46:12;;;;;;;16.75;12.07;;;;;;;20.39;nan;101572.28;5054028;28;20068;-59
2022/07/19 05:48:37;;;;;;;14.77;12.25;;;;;;;20.79;nan;101617.00;5055260;28;20491;-60
2022/07/19 05:51:03;;;;;;;17.60;12.57;;;;;;;21.27;nan;101675.53;5055298;28;20036;-60
2022/07/19 05:53:28;;;;;;;16.45;11.82;;;;;;;21.39;nan;101664.97;5053982;28;20036;-59
2022/07/19 05:55:54;;;;;;;21.75;12.25;;;;;;;21.20;nan;101622.44;5055518;28;20047;-61
2022/07/19 05:58:19;;;;;;;21.85;12.95;;;;;;;21.71;nan;101675.34;5054849;28;20043;-60
2022/07/19 06:01:17;;;;;;;16.98;12.93;;;;;;;21.49;nan;101617.88;5055108;28;20033;-60
2022/07/19 06:03:31;;;;;;;20.70;12.30;;;;;;;21.71;nan;101627.09;5054879;28;20124;-58
2022/07/19 06:05:56;;;;;;;18.83;13.07;;;;;;;22.17;nan;101688.38;5054804;28;20136;-59
2022/07/19 06:08:22;;;;;;;19.33;12.27;;;;;;;22.06;nan;101637.31;5055213;28;20131;-59
2022/07/19 06:10:47;;;;;;;16.33;12.32;;;;;;;22.42;nan;101686.63;5055029;28;20223;-60
2022/07/19 06:13:13;;;;;;;17.75;12.18;;;;;;;22.29;nan;101631.22;5054872;28;20037;-61
2022/07/19 06:15:38;;;;;;;14.65;11.40;;;;;;;22.70;nan;101682.06;5053328;28;20419;-61
2022/07/19 06:18:03;;;;;;;17.85;12.05;;;;;;;22.90;nan;101693.13;5054886;28;20036;-60
2022/07/19 06:20:29;;;;;;;17.60;11.70;;;;;;;22.70;nan;101645.34;5055219;28;20041;-61
2022/07/19 06:22:54;;;;;;;15.95;10.38;;;;;;;22.91;nan;101667.97;5054935;28;20036;-60
2022/07/19 06:25:20;;;;;;;13.63;11.27;;;;;;;23.29;nan;101700.16;5054597;28;20491;-61
2022/07/19 06:27:45;;;;;;;15.73;11.05;;;;;;;23.10;nan;101654.13;5054583;28;20041;-59
2022/07/19 06:30:10;;;;;;;14.07;10.90;;;;;;;23.56;nan;101707.22;5054426;28;20043;-60
2022/07/19 06:32:36;;;;;;;16.65;10.98;;;;;;;23.70;nan;101702.56;5054678;28;20033;-61
2022/07/19 06:35:01;;;;;;;14.30;9.60;;;;;;;23.37;nan;101629.78;5054469;28;20045;-61
2022/07/19 06:37:26;;;;;;;15.48;10.95;;;;;;;23.69;nan;101660.53;5054732;28;20037;-59
2022/07/19 06:39:52;;;;;;;15.13;10.35;;;;;;;24.05;nan;101699.97;5052986;28;20492;-61
2022/07/19 06:42:17;;;;;;;18.27;10.93;;;;;;;23.98;nan;101666.41;5053224;28;20048;-62
2022/07/19 06:44:42;;;;;;;15.52;10.10;;;;;;;24.34;nan;101695.09;5054158;28;20498;-60
2022/07/19 06:47:08;;;;;;;15.85;10.15;;;;;;;24.60;nan;101726.25;5054186;28;20111;-60
2022/07/19 06:49:33;;;;;;;15.98;10.75;;;;;;;24.70;nan;101724.53;5054137;28;20123;-61
2022/07/19 06:51:58;;;;;;;13.50;10.07;;;;;;;24.57;nan;101669.97;5053807;28;20039;-59
2022/07/19 06:54:24;;;;;;;15.68;10.85;;;;;;;24.76;nan;101677.44;5052606;28;20033;-61
2022/07/19 06:56:49;;;;;;;17.08;10.98;;;;;;;24.95;nan;101688.53;5053443;28;20033;-60
2022/07/19 06:59:15;;;;;;;13.70;10.13;;;;;;;25.00;nan;101673.72;5053839;28;20056;-62
2022/07/19 07:01:40;;;;;;;16.85;10.18;;;;;;;25.37;nan;101719.25;5052923;28;20051;-60
2022/07/19 07:04:05;;;;;;;11.68;9.25;;;;;;;25.19;nan;101671.25;5053913;28;20040;-60
2022/07/19 07:06:30;;;;;;;12.63;8.25;;;;;;;25.31;nan;101660.44;5053708;28;20511;-61
2022/07/19 07:08:56;;;;;;;11.15;8.25;;;;;;;25.77;nan;101707.00;5053873;28;20076;-61
2022/07/19 07:11:21;;;;;;;13.90;7.90;;;;;;;25.67;nan;101670.97;5053868;28;20090;-60
2022/07/19 07:13:46;;;;;;;14.70;8.00;;;;;;;25.85;nan;101682.94;5053569;28;20061;-62
2022/07/19 07:16:12;;;;;;;12.93;8.02;;;;;;;25.99;nan;101681.78;5053819;28;20029;-62
2022/07/19 07:18:38;;;;;;;10.93;6.53;;;;;;;26.25;nan;101702.06;5053573;28;20033;-61
2022/07/19 07:21:03;;;;;;;10.77;7.35;;;;;;;26.42;nan;101698.78;5053615;28;20029;-61
2022/07/19 07:23:29;;;;;;;9.60;7.10;;;;;;;26.65;nan;101707.59;5053579;28;20170;-62
2022/07/19 07:25:54;;;;;;;10.13;6.68;;;;;;;26.86;nan;101705.78;5053477;28;20047;-60
2022/07/19 07:28:19;;;;;;;13.07;7.35;;;;;;;27.04;nan;101711.44;5053416;28;20122;-62
2022/07/19 07:30:45;;;;;;;13.10;8.13;;;;;;;27.20;nan;101698.28;5053411;28;20040;-61
2022/07/19 07:33:10;;;;;;;12.25;7.82;;;;;;;27.14;nan;101664.56;5053429;28;20064;-61
2022/07/19 07:35:35;;;;;;;12.38;8.63;;;;;;;27.53;nan;101698.00;5054827;28;20476;-61
2022/07/19 07:38:01;;;;;;;12.02;7.05;;;;;;;27.57;nan;101658.88;5051434;28;20388;-62
2022/07/19 07:40:26;;;;;;;13.40;8.30;;;;;;;27.94;nan;101656.34;5053092;28;20120;-63
2022/07/19 07:42:51;;;;;;;13.88;8.23;;;;;;;28.72;nan;101706.81;5053362;28;20037;-61
2022/07/19 07:45:17;;;;;;;13.57;8.73;;;;;;;28.98;nan;101659.94;5052990;28;20036;-63
2022/07/19 07:47:42;;;;;;;12.18;8.27;;;;;;;29.88;nan;101708.91;5053055;28;20422;-62
2022/07/19 07:50:08;;;;;;;14.25;9.43;;;;;;;30.33;nan;101703.38;5053214;28;20033;-62
2022/07/19 07:52:34;;;;;;;13.10;9.07;;;;;;;30.80;nan;101706.66;5053024;28;20032;-62
2022/07/19 07:54:59;;;;;;;14.75;8.30;;;;;;;30.96;nan;101676.91;5051476;28;20484;-62
2022/07/19 07:57:25;;;;;;;14.90;9.05;;;;;;;31.58;nan;101685.72;5051484;28;20055;-64
2022/07/19 07:59:50;;;;;;;11.93;8.23;;;;;;;32.06;nan;101725.84;5051560;28;20044;-64
2022/07/19 08:02:15;;;;;;;13.00;8.83;;;;;;;32.33;nan;101702.88;5051891;28;20044;-63
2022/07/19 08:04:41;;;;;;;16.65;9.35;;;;;;;32.73;nan;101713.78;5051654;28;20302;-63
2022/07/19 08:07:06;;;;;;;11.27;8.90;;;;;;;32.86;nan;101711.41;5049413;28;20582;-62
2022/07/19 08:09:32;;;;;;;11.52;8.73;;;;;;;32.75;nan;101673.59;5051635;28;20309;-63
2022/07/19 08:11:57;;;;;;;16.42;8.73;;;;;;;33.16;nan;101704.38;5050233;28;20431;-62
2022/07/19 08:14:22;;;;;;;15.25;10.25;;;;;;;32.95;nan;101654.97;5051430;28;20101;-63
2022/07/19 08:16:48;;;;;;;12.60;10.97;;;;;;;33.30;nan;101714.56;5050444;28;20404;-63
2022/07/19 08:19:13;;;;;;;12.13;10.73;;;;;;;33.39;nan;101703.41;5051547;28;20282;-64
2022/07/19 08:21:38;;;;;;;17.85;11.05;;;;;;;33.38;nan;101695.41;5050214;28;20279;-61
2022/07/19 08:24:04;;;;;;;11.90;8.93;;;;;;;33.18;nan;101654.06;5051320;28;20033;-63
2022/07/19 08:26:31;;;;;;;10.57;8.05;;;;;;;33.38;nan;101655.31;5051231;28;20043;-60
2022/07/19 08:28:56;;;;;;;11.75;7.57;;;;;;;33.68;nan;101653.66;5033445;28;20036;-65
2022/07/19 08:31:22;;;;;;;10.93;7.90;;;;;;;33.98;nan;101694.78;5051185;28;20045;-62
2022/07/19 08:33:47;;;;;;;9.47;6.67;;;;;;;34.12;nan;101666.69;5050903;28;20069;-63
2022/07/19 08:36:13;;;;;;;9.80;7.53;;;;;;;34.27;nan;101692.16;5050809;28;20845;-64
2022/07/19 08:38:39;;;;;;;13.70;6.80;;;;;;;34.34;nan;101674.00;5050602;28;20053;-63
2022/07/19 08:41:04;;;;;;;13.63;6.90;;;;;;;34.33;nan;101648.56;5049918;28;20033;-64
2022/07/19 08:43:30;;;;;;;8.40;6.25;;;;;;;34.62;nan;101690.72;5049509;28;20029;-62
2022/07/19 08:45:59;;;;;;;13.73;6.57;;;;;;;34.53;nan;101648.91;5050843;28;20048;-64
2022/07/19 08:48:25;;;;;;;7.85;6.20;;;;;;;34.59;nan;101639.94;5049927;28;20479;-63
2022/07/19 08:50:52;;;;;;;7.07;5.53;;;;;;;34.95;nan;101687.44;5049624;28;20017;-62
2022/07/19 08:53:18;;;;;;;9.95;6.35;;;;;;;34.90;nan;101670.75;5049619;28;20041;-63
2022/07/19 08:55:43;;;;;;;7.65;5.47;;;;;;;34.92;nan;101637.72;5049622;28;20033;-64
2022/07/19 08:58:09;;;;;;;11.07;5.35;;;;;;;35.01;nan;101653.00;5032969;28;20056;-64
2022/07/19 09:00:35;;;;;;;9.20;5.30;;;;;;;35.35;nan;101672.44;5049565;28;20044;-62
2022/07/19 09:03:02;;;;;;;11.98;5.57;;;;;;;35.56;nan;101680.75;5049323;28;20025;-59
2022/07/19 09:05:28;;;;;;;10.35;5.68;;;;;;;35.60;nan;101674.88;5050363;28;20514;-63
2022/07/19 09:08:16;;;;;;;7.75;5.47;;;;;;;35.70;nan;101676.25;5050760;28;20036;-63
2022/07/19 09:10:44;;;;;;;13.65;5.82;;;;;;;35.88;nan;101678.56;5050661;28;20029;-63
2022/07/19 09:13:12;;;;;;;7.55;5.40;;;;;;;36.23;nan;101682.31;5050943;28;20043;-62
2022/07/19 09:15:44;;;;;;;12.57;6.13;;;;;;;36.32;nan;101681.13;5050860;28;20025;-64
2022/07/19 09:18:24;;;;;;;11.80;4.18;;;;;;;36.49;nan;101677.91;5051213;28;20035;-61
2022/07/19 09:20:52;;;;;;;6.75;4.03;;;;;;;36.56;nan;101665.13;5053153;28;20036;-65
2022/07/19 09:23:19;;;;;;;8.70;3.03;;;;;;;36.76;nan;101665.28;5053931;28;20040;-64
2022/07/19 09:25:48;;;;;;;7.78;2.90;;;;;;;36.65;nan;101631.03;5054667;28;20039;-66
2022/07/19 09:28:14;;;;;;;5.18;2.83;;;;;;;36.85;nan;101661.31;5054272;28;20131;-64
2022/07/19 09:30:42;;;;;;;7.38;2.50;;;;;;;36.92;nan;101666.84;5054590;28;20116;-61
2022/07/19 09:33:11;;;;;;;4.38;2.67;;;;;;;37.20;nan;101668.53;5053281;28;20029;-63
2022/07/19 09:35:40;;;;;;;4.60;2.70;;;;;;;37.37;nan;101654.44;5054398;28;20047;-63
2022/07/19 09:38:28;;;;;;;7.10;3.28;;;;;;;37.59;nan;101654.16;5052910;28;20434;-66
2022/07/19 09:41:16;;;;;;;5.80;2.72;;;;;;;37.68;nan;101657.53;5054468;28;20537;-64
2022/07/19 09:43:50;;;;;;;8.32;3.08;;;;;;;37.75;nan;101652.91;5036316;28;20375;-63
2022/07/19 09:46:45;;;;;;;5.47;3.00;;;;;;;37.79;nan;101643.19;5054097;28;20048;-63
2022/07/19 09:49:17;;;;;;;5.78;2.55;;;;;;;37.78;nan;101624.16;5022376;28;20033;-64
2022/07/19 09:51:51;;;;;;;7.20;2.45;;;;;;;38.12;nan;101649.59;5053973;28;20411;-63
2022/07/19 09:54:22;;;;;;;5.28;3.05;;;;;;;38.12;nan;101621.28;5053975;28;20109;-65
2022/07/19 09:56:50;;;;;;;6.15;2.70;;;;;;;38.15;nan;101594.19;5054198;28;20110;-63
2022/07/19 09:59:15;;;;;;;4.55;2.50;;;;;;;38.45;nan;101648.78;5054309;28;20060;-64
2022/07/19 10:01:42;;;;;;;5.30;2.20;;;;;;;38.24;nan;101584.66;5054077;28;20064;-64
2022/07/19 10:04:08;;;;;;;5.22;2.00;;;;;;;38.87;nan;101628.22;5053787;28;20041;-63
2022/07/19 10:06:34;;;;;;;4.65;2.22;;;;;;;39.04;nan;101638.53;5052358;28;20069;-64
2022/07/19 10:09:02;;;;;;;4.63;1.98;;;;;;;39.10;nan;101636.81;5053647;28;20041;-63
2022/07/19 10:11:30;;;;;;;6.10;2.20;;;;;;;39.00;nan;101593.22;5054036;28;20032;-65
2022/07/19 10:13:56;;;;;;;5.95;2.53;;;;;;;38.94;nan;101549.22;5053867;28;20037;-64
2022/07/19 10:16:27;;;;;;;6.75;2.63;;;;;;;39.69;nan;101628.31;5052459;28;20056;-63
2022/07/19 10:19:11;;;;;;;3.55;2.30;;;;;;;39.38;nan;101574.00;5052772;28;20029;-65
2022/07/19 10:21:37;;;;;;;5.28;2.15;;;;;;;39.89;nan;101618.84;5052363;28;20028;-64
2022/07/19 10:24:02;;;;;;;8.82;3.63;;;;;;;40.11;nan;101604.72;5052137;28;20048;-62
2022/07/19 10:26:39;;;;;;;5.13;2.20;;;;;;;40.12;nan;101607.25;5053402;28;20045;-63
2022/07/19 10:29:12;;;;;;;4.45;2.53;;;;;;;40.30;nan;101611.97;5053372;28;20039;-61
2022/07/19 10:31:40;;;;;;;4.65;2.05;;;;;;;40.34;nan;101613.22;5052712;28;20037;-65
2022/07/19 10:34:11;;;;;;;3.92;2.15;;;;;;;40.28;nan;101606.66;5051812;28;20037;-64
2022/07/19 10:36:43;;;;;;;5.07;2.20;;;;;;;40.22;nan;101598.47;5051895;28;20431;-63
2022/07/19 10:39:18;;;;;;;7.40;2.35;;;;;;;40.45;nan;101609.69;5053260;28;20446;-65
2022/07/19 10:42:08;;;;;;;5.70;2.55;;;;;;;40.46;nan;101600.34;5053590;28;20025;-63
2022/07/19 10:44:35;;;;;;;4.57;1.80;;;;;;;40.60;nan;101592.81;5053349;28;20453;-64
2022/07/19 10:47:01;;;;;;;6.80;2.10;;;;;;;40.76;nan;101606.84;5053201;28;20033;-66
2022/07/19 10:49:45;;;;;;;9.60;2.70;;;;;;;40.87;nan;101596.94;5053181;28;20060;-63
2022/07/19 10:52:28;;;;;;;4.45;2.45;;;;;;;40.84;nan;101594.63;5051597;28;20067;-68
2022/07/19 10:55:16;;;;;;;2.85;1.88;;;;;;;41.19;nan;101595.72;5053131;28;20504;-67
2022/07/19 10:57:42;;;;;;;2.20;2.00;;;;;;;41.26;nan;101599.25;5053118;28;20051;-65
2022/07/19 11:00:28;;;;;;;4.00;1.90;;;;;;;41.35;nan;101580.44;5051657;28;20040;-64
2022/07/19 11:03:22;;;;;;;5.57;2.05;;;;;;;41.44;nan;101579.91;5052812;28;20103;-68
2022/07/19 11:05:50;;;;;;;4.10;2.47;;;;;;;41.68;nan;101575.28;5052849;28;20044;-65
2022/07/19 11:08:16;;;;;;;2.17;1.90;;;;;;;41.78;nan;101569.19;5052649;28;20032;-65
2022/07/19 11:10:41;;;;;;;3.38;2.33;;;;;;;42.07;nan;101571.03;5051877;28;20127;-65
2022/07/19 11:13:07;;;;;;;3.55;1.95;;;;;;;41.90;nan;101531.34;5051393;28;20070;-64
2022/07/19 11:15:33;;;;;;;3.10;2.03;;;;;;;42.24;nan;101577.56;5052995;28;20041;-65
2022/07/19 11:18:01;;;;;;;3.90;2.28;;;;;;;42.19;nan;101566.38;5051098;28;20057;-64
2022/07/19 11:20:31;;;;;;;6.75;1.83;;;;;;;41.84;nan;101532.28;5052573;28;20087;-66
2022/07/19 11:22:58;;;;;;;4.05;1.80;;;;;;;41.90;nan;101554.31;5051968;28;20044;-65
2022/07/19 11:25:35;;;;;;;5.65;2.42;;;;;;;41.88;nan;101564.78;5050833;28;20041;-63
2022/07/19 11:28:01;;;;;;;3.88;2.47;;;;;;;41.98;nan;101567.78;5050872;28;20028;-64
2022/07/19 11:30:28;;;;;;;4.35;1.88;;;;;;;41.81;nan;101508.72;5052481;28;20059;-65
2022/07/19 11:32:59;;;;;;;5.68;2.20;;;;;;;42.15;nan;101509.81;5050855;28;20120;-66
2022/07/19 11:35:24;;;;;;;5.85;2.35;;;;;;;42.17;nan;101510.44;5050658;28;20506;-62